createdAt,value
2022-09-30T00:00:12.164Z,4.28
2022-09-30T00:05:15.666Z,4.08
2022-09-30T00:10:20.521Z,4.08
2022-09-30T00:15:24.216Z,3.99
2022-09-30T00:20:27.636Z,3.92
2022-09-30T00:25:32.566Z,3.82
2022-09-30T00:30:35.992Z,3.76
2022-09-30T00:35:39.430Z,3.71
2022-09-30T00:40:44.482Z,3.59
2022-09-30T00:45:52.605Z,3.51
2022-09-30T00:50:56.813Z,3.54
2022-09-30T00:56:04.842Z,3.47
2022-09-30T01:01:10.108Z,3.27
2022-09-30T01:06:14.070Z,3.27
2022-09-30T01:11:18.906Z,3.28
2022-09-30T01:16:42.325Z,3.22
2022-09-30T01:22:12.340Z,3.18
2022-09-30T01:27:48.512Z,3.10
2022-09-30T01:33:11.625Z,3.07
2022-09-30T01:38:28.104Z,3.04
2022-09-30T01:43:40.768Z,3.08
2022-09-30T01:48:52.423Z,2.93
2022-09-30T01:54:01.214Z,2.84
2022-09-30T01:59:09.661Z,2.90
2022-09-30T02:04:21.021Z,2.75
2022-09-30T02:09:30.324Z,2.77
2022-09-30T02:14:38.659Z,2.70
2022-09-30T02:19:47.078Z,2.71
2022-09-30T02:24:56.233Z,2.67
2022-09-30T02:30:04.139Z,2.52
2022-09-30T02:35:14.002Z,2.42
2022-09-30T02:40:23.126Z,2.58
2022-09-30T02:45:27.288Z,2.52
2022-09-30T02:50:36.259Z,2.46
2022-09-30T02:55:51.186Z,2.47
2022-09-30T03:00:55.902Z,2.38
2022-09-30T03:06:00.927Z,2.37
2022-09-30T03:11:05.850Z,2.35
2022-09-30T03:16:20.544Z,2.30
2022-09-30T03:21:38.758Z,2.23
2022-09-30T03:26:52.050Z,2.20
2022-09-30T03:32:09.232Z,2.18
2022-09-30T03:37:27.099Z,2.14
2022-09-30T03:42:38.615Z,2.05
2022-09-30T03:47:47.785Z,2.07
2022-09-30T03:52:53.150Z,2.07
2022-09-30T03:57:57.759Z,1.84
2022-09-30T04:03:01.475Z,1.87
2022-09-30T04:08:06.389Z,1.91
2022-09-30T04:13:09.896Z,1.89
2022-09-30T04:18:13.630Z,1.82
2022-09-30T04:23:18.961Z,1.82
2022-09-30T04:28:23.243Z,1.72
2022-09-30T04:33:27.585Z,1.77
2022-09-30T04:38:33.625Z,1.75
2022-09-30T04:43:37.721Z,1.61
2022-09-30T04:48:45.929Z,1.67
2022-09-30T04:53:51.819Z,1.64
2022-09-30T04:58:55.747Z,1.58
2022-09-30T05:03:59.307Z,1.56
2022-09-30T05:09:04.764Z,1.50
2022-09-30T05:14:09.905Z,1.55
2022-09-30T05:19:13.551Z,1.50
2022-09-30T05:24:18.989Z,1.54
2022-09-30T05:29:22.524Z,1.58
2022-09-30T05:34:26.564Z,1.61
2022-09-30T05:39:31.389Z,1.68
2022-09-30T05:44:34.909Z,1.70
2022-09-30T05:49:40.195Z,1.74
2022-09-30T05:54:45.348Z,1.78
2022-09-30T05:59:48.862Z,1.82
2022-09-30T06:04:52.437Z,2.00
2022-09-30T06:09:57.376Z,2.05
2022-09-30T06:15:01.125Z,2.10
2022-09-30T06:20:05.631Z,2.24
2022-09-30T06:25:11.520Z,2.18
2022-09-30T06:30:15.418Z,2.37
2022-09-30T06:35:19.566Z,2.43
2022-09-30T06:40:25.011Z,2.58
2022-09-30T06:45:32.981Z,2.71
2022-09-30T06:50:39.235Z,2.92
2022-09-30T06:55:44.380Z,3.33
2022-09-30T07:00:48.154Z,3.71
2022-09-30T07:05:58.244Z,4.35
2022-09-30T07:11:05.526Z,4.94
2022-09-30T07:16:09.162Z,5.43
2022-09-30T07:21:13.727Z,6.19
2022-09-30T07:26:20.750Z,6.11
2022-09-30T07:31:35.325Z,6.93
2022-09-30T07:36:40.434Z,6.99
2022-09-30T07:41:45.372Z,7.25
2022-09-30T07:46:48.931Z,7.46
2022-09-30T07:51:53.955Z,7.88
2022-09-30T07:57:15.956Z,8.41
2022-09-30T08:02:20.748Z,8.78
2022-09-30T08:07:24.222Z,9.07
2022-09-30T08:12:29.218Z,9.00
2022-09-30T08:17:32.733Z,9.57
2022-09-30T08:22:36.166Z,9.69
2022-09-30T08:27:41.186Z,10.59
2022-09-30T08:32:44.794Z,10.93
2022-09-30T08:37:48.364Z,11.16
2022-09-30T08:43:10.253Z,11.54
2022-09-30T08:48:29.983Z,12.00
2022-09-30T08:53:37.670Z,11.94
2022-09-30T08:58:45.396Z,12.21
2022-09-30T09:03:49.232Z,12.27
2022-09-30T09:09:19.873Z,13.11
2022-09-30T09:14:39.288Z,13.04
2022-09-30T09:19:48.612Z,13.40
2022-09-30T09:24:54.830Z,13.77
2022-09-30T09:30:07.660Z,13.69
2022-09-30T09:35:16.471Z,14.13
2022-09-30T09:40:28.510Z,14.48
2022-09-30T09:45:39.782Z,14.24
2022-09-30T09:50:51.750Z,14.05
2022-09-30T09:55:59.385Z,14.86
2022-09-30T10:01:32.106Z,14.37
2022-09-30T10:06:44.838Z,14.36
2022-09-30T10:11:48.491Z,14.58
2022-09-30T10:17:00.757Z,14.93
2022-09-30T10:22:20.492Z,15.48
2022-09-30T10:27:31.683Z,15.84
2022-09-30T10:32:37.454Z,15.37
2022-09-30T10:37:52.307Z,15.52
2022-09-30T10:42:57.109Z,15.96
2022-09-30T10:48:07.681Z,16.37
2022-09-30T10:53:18.227Z,16.45
2022-09-30T10:58:38.475Z,16.37
2022-09-30T11:03:56.095Z,16.50
2022-09-30T11:09:07.239Z,16.72
2022-09-30T11:14:28.511Z,16.54
2022-09-30T11:19:37.348Z,16.21
2022-09-30T11:24:44.812Z,15.47
2022-09-30T11:30:02.094Z,16.44
2022-09-30T11:35:22.325Z,16.71
2022-09-30T11:40:32.330Z,16.68
2022-09-30T11:45:50.596Z,17.56
2022-09-30T11:51:04.177Z,17.25
2022-09-30T11:56:21.826Z,17.68
2022-09-30T12:01:32.732Z,17.43
2022-09-30T12:06:40.988Z,15.95
2022-09-30T12:11:51.847Z,16.43
2022-09-30T12:16:58.532Z,16.24
2022-09-30T12:22:11.903Z,16.69
2022-09-30T12:27:20.147Z,17.15
2022-09-30T12:33:13.123Z,17.11
2022-09-30T12:38:39.220Z,17.17
2022-09-30T12:44:16.923Z,17.04
2022-09-30T12:49:24.616Z,17.35
2022-09-30T12:54:35.020Z,17.11
2022-09-30T12:59:45.632Z,16.96
2022-09-30T13:04:52.078Z,17.09
2022-09-30T13:10:26.999Z,16.89
2022-09-30T13:15:44.305Z,17.19
2022-09-30T13:20:55.357Z,17.37
2022-09-30T13:26:02.075Z,17.19
2022-09-30T13:31:19.071Z,16.69
2022-09-30T13:36:30.137Z,16.40
2022-09-30T13:41:38.739Z,16.69
2022-09-30T13:46:49.945Z,16.79
2022-09-30T13:51:56.638Z,16.78
2022-09-30T13:57:03.633Z,16.68
2022-09-30T14:02:39.748Z,16.35
2022-09-30T14:07:58.054Z,16.34
2022-09-30T14:13:19.688Z,16.60
2022-09-30T14:18:44.313Z,16.35
2022-09-30T14:23:57.366Z,16.27
2022-09-30T14:29:09.356Z,16.24
2022-09-30T14:34:15.164Z,16.23
2022-09-30T14:39:22.218Z,16.00
2022-09-30T14:44:29.810Z,15.80
2022-09-30T14:49:37.592Z,15.76
2022-09-30T14:54:48.632Z,15.51
2022-09-30T14:59:53.615Z,15.28
2022-09-30T15:05:01.799Z,14.86
2022-09-30T15:10:07.582Z,14.44
2022-09-30T15:15:36.876Z,14.11
2022-09-30T15:20:42.452Z,13.84
2022-09-30T15:25:45.984Z,13.91
2022-09-30T15:30:54.259Z,13.46
2022-09-30T15:36:06.976Z,13.52
2022-09-30T15:41:12.955Z,13.05
2022-09-30T15:46:38.623Z,12.73
2022-09-30T15:51:44.372Z,12.64
2022-09-30T15:56:48.072Z,12.42
2022-09-30T16:01:58.114Z,12.34
2022-09-30T16:07:09.787Z,12.03
2022-09-30T16:12:21.275Z,11.62
2022-09-30T16:17:28.978Z,11.62
2022-09-30T16:22:49.218Z,11.32
2022-09-30T16:27:57.823Z,11.06
2022-09-30T16:33:06.058Z,10.65
2022-09-30T16:38:14.140Z,10.63
2022-09-30T16:43:17.791Z,10.40
2022-09-30T16:48:22.664Z,10.08
2022-09-30T16:53:26.173Z,10.05
2022-09-30T16:58:31.261Z,9.87
2022-09-30T17:03:35.986Z,9.67
2022-09-30T17:08:39.333Z,9.40
2022-09-30T17:13:43.225Z,9.21
2022-09-30T17:18:48.267Z,8.87
2022-09-30T17:23:52.384Z,8.62
2022-09-30T17:29:08.789Z,8.62
2022-09-30T17:34:19.780Z,8.46
2022-09-30T17:39:33.210Z,8.41
2022-09-30T17:44:39.147Z,8.21
2022-09-30T17:49:45.360Z,8.01
2022-09-30T17:54:58.256Z,7.82
2022-09-30T18:00:05.198Z,7.74
2022-09-30T18:05:14.540Z,7.59
2022-09-30T18:10:18.343Z,7.44
2022-09-30T18:15:27.119Z,7.30
2022-09-30T18:20:44.890Z,7.24
2022-09-30T18:25:52.229Z,7.10
2022-09-30T18:30:55.755Z,7.09
2022-09-30T18:36:03.232Z,6.92
2022-09-30T18:41:07.467Z,6.77
2022-09-30T18:46:10.887Z,6.62
2022-09-30T18:51:18.893Z,6.49
2022-09-30T18:56:24.151Z,6.41
2022-09-30T19:01:27.946Z,6.34
2022-09-30T19:06:33.158Z,6.25
2022-09-30T19:11:37.444Z,6.00
2022-09-30T19:16:44.037Z,5.93
2022-09-30T19:21:49.795Z,5.85
2022-09-30T19:26:53.223Z,5.79
2022-09-30T19:31:58.518Z,5.58
2022-09-30T19:37:03.694Z,5.54
2022-09-30T19:42:09.357Z,5.32
2022-09-30T19:47:12.948Z,5.36
2022-09-30T19:52:22.122Z,5.29
2022-09-30T19:57:27.976Z,5.16
2022-09-30T20:02:31.675Z,5.06
2022-09-30T20:07:39.411Z,5.03
2022-09-30T20:12:44.665Z,4.99
2022-09-30T20:17:50.364Z,4.89
2022-09-30T20:22:55.645Z,4.80
2022-09-30T20:27:59.537Z,4.72
2022-09-30T20:33:04.490Z,4.65
2022-09-30T20:38:13.763Z,4.63
2022-09-30T20:43:17.681Z,4.52
2022-09-30T20:48:21.391Z,4.50
2022-09-30T20:53:26.690Z,4.37
2022-09-30T20:58:30.133Z,4.30
2022-09-30T21:03:36.122Z,4.31
2022-09-30T21:08:43.087Z,4.23
2022-09-30T21:13:50.535Z,4.18
2022-09-30T21:18:55.716Z,4.09
2022-09-30T21:24:02.328Z,4.08
2022-09-30T21:29:06.224Z,4.00
2022-09-30T21:34:13.813Z,4.05
2022-09-30T21:39:18.599Z,3.76
2022-09-30T21:44:23.360Z,3.98
2022-09-30T21:49:26.680Z,3.89
2022-09-30T21:54:31.390Z,3.76
2022-09-30T21:59:46.318Z,3.75
2022-09-30T22:04:52.046Z,3.88
2022-09-30T22:09:56.968Z,3.84
2022-09-30T22:15:00.333Z,3.92
2022-09-30T22:20:03.863Z,3.86
2022-09-30T22:25:10.338Z,3.84
2022-09-30T22:30:14.027Z,3.78
2022-09-30T22:35:35.044Z,3.75
2022-09-30T22:40:39.957Z,3.72
2022-09-30T22:45:43.988Z,3.61
2022-09-30T22:50:48.092Z,3.57
2022-09-30T22:55:53.146Z,3.54
2022-09-30T23:00:58.736Z,3.58
2022-09-30T23:06:03.299Z,3.53
2022-09-30T23:11:09.754Z,3.64
2022-09-30T23:16:16.664Z,3.60
2022-09-30T23:21:21.657Z,3.47
2022-09-30T23:26:28.439Z,3.43
2022-09-30T23:31:32.506Z,3.47
2022-09-30T23:36:38.060Z,3.51
2022-09-30T23:41:46.338Z,3.58
2022-09-30T23:47:09.814Z,3.47
2022-09-30T23:52:14.131Z,3.45
2022-09-30T23:57:18.823Z,3.30
